Cotton Valley, Louisiana
Current Conditions -  °F | °C
As of 8:15 PM on Sunday 25 Jan 2015 (Local Time) from KMNE Reporting Station
Clear Clear  
Wind Chill: 54°   Ceiling: Unl
Heat Index: 54°   Visibility: 10mi
Dew Point: 33°   Wind: 9mph
Humidity: 44%   Direction: 320°NW
Pressure: 30.02"   Gusts: 16mph
Location:  32.82°N, 93.42°W
Report Text: KMNE 260215Z AUTO 32008G14KT 10SM CLR 12/01 A3002 RMK AO2 T01240005
Loading
Personal Weather Stations






























Interactive Weather Map New forecast layout! Learn more

10-Day Weather Forecast

Advertisements
Track Severe Weather on mobile